sensor_id;sensor_type;location;lat;lon;timestamp;P1;durP1;ratioP1;P2;durP2;ratioP2
47519;SDS011;33252;48.122;11.538;2024-02-28T00:02:21;23.20;;;14.77;;
47519;SDS011;33252;48.122;11.538;2024-02-28T00:04:47;27.60;;;15.07;;
47519;SDS011;33252;48.122;11.538;2024-02-28T00:07:12;27.27;;;16.13;;
47519;SDS011;33252;48.122;11.538;2024-02-28T00:09:38;27.38;;;16.17;;
47519;SDS011;33252;48.122;11.538;2024-02-28T00:12:03;23.65;;;15.25;;
47519;SDS011;33252;48.122;11.538;2024-02-28T00:14:29;22.05;;;14.40;;
47519;SDS011;33252;48.122;11.538;2024-02-28T00:16:54;27.60;;;17.08;;
47519;SDS011;33252;48.122;11.538;2024-02-28T00:19:20;27.15;;;15.85;;
47519;SDS011;33252;48.122;11.538;2024-02-28T00:21:47;24.42;;;15.77;;
47519;SDS011;33252;48.122;11.538;2024-02-28T00:24:13;27.27;;;15.10;;
47519;SDS011;33252;48.122;11.538;2024-02-28T00:26:41;24.27;;;15.70;;
47519;SDS011;33252;48.122;11.538;2024-02-28T00:29:08;30.90;;;16.75;;
47519;SDS011;33252;48.122;11.538;2024-02-28T00:31:34;27.67;;;16.85;;
47519;SDS011;33252;48.122;11.538;2024-02-28T00:34:00;31.02;;;17.73;;
47519;SDS011;33252;48.122;11.538;2024-02-28T00:36:25;30.83;;;17.08;;
47519;SDS011;33252;48.122;11.538;2024-02-28T00:38:51;29.10;;;15.95;;
47519;SDS011;33252;48.122;11.538;2024-02-28T00:41:16;28.45;;;15.90;;
47519;SDS011;33252;48.122;11.538;2024-02-28T00:43:42;25.05;;;15.85;;
47519;SDS011;33252;48.122;11.538;2024-02-28T00:46:07;29.13;;;16.48;;
47519;SDS011;33252;48.122;11.538;2024-02-28T00:48:37;29.60;;;17.67;;
47519;SDS011;33252;48.122;11.538;2024-02-28T00:51:03;27.52;;;16.25;;
47519;SDS011;33252;48.122;11.538;2024-02-28T00:53:29;27.70;;;16.80;;
47519;SDS011;33252;48.122;11.538;2024-02-28T00:55:55;27.40;;;15.40;;
47519;SDS011;33252;48.122;11.538;2024-02-28T00:58:20;27.05;;;16.13;;
47519;SDS011;33252;48.122;11.538;2024-02-28T01:00:47;27.17;;;16.73;;
47519;SDS011;33252;48.122;11.538;2024-02-28T01:03:13;30.02;;;17.42;;
47519;SDS011;33252;48.122;11.538;2024-02-28T01:05:40;27.05;;;16.13;;
47519;SDS011;33252;48.122;11.538;2024-02-28T01:08:06;27.30;;;15.75;;
47519;SDS011;33252;48.122;11.538;2024-02-28T01:10:32;30.48;;;17.70;;
47519;SDS011;33252;48.122;11.538;2024-02-28T01:12:59;25.67;;;16.98;;
47519;SDS011;33252;48.122;11.538;2024-02-28T01:15:24;24.45;;;16.35;;
47519;SDS011;33252;48.122;11.538;2024-02-28T01:17:50;27.00;;;16.73;;
47519;SDS011;33252;48.122;11.538;2024-02-28T01:20:15;23.08;;;15.38;;
47519;SDS011;33252;48.122;11.538;2024-02-28T01:22:41;24.05;;;15.20;;
47519;SDS011;33252;48.122;11.538;2024-02-28T01:25:06;24.05;;;14.60;;
47519;SDS011;33252;48.122;11.538;2024-02-28T01:27:32;25.77;;;14.38;;
47519;SDS011;33252;48.122;11.538;2024-02-28T01:29:58;27.65;;;15.27;;
47519;SDS011;33252;48.122;11.538;2024-02-28T01:32:24;26.55;;;15.02;;
47519;SDS011;33252;48.122;11.538;2024-02-28T01:34:50;26.35;;;14.90;;
47519;SDS011;33252;48.122;11.538;2024-02-28T01:37:15;25.52;;;14.35;;
47519;SDS011;33252;48.122;11.538;2024-02-28T01:39:41;24.23;;;14.43;;
47519;SDS011;33252;48.122;11.538;2024-02-28T01:42:06;21.15;;;14.80;;
47519;SDS011;33252;48.122;11.538;2024-02-28T01:44:33;25.00;;;14.68;;
47519;SDS011;33252;48.122;11.538;2024-02-28T01:47:05;25.35;;;14.70;;
47519;SDS011;33252;48.122;11.538;2024-02-28T01:49:31;27.48;;;15.63;;
47519;SDS011;33252;48.122;11.538;2024-02-28T01:51:57;26.40;;;15.70;;
47519;SDS011;33252;48.122;11.538;2024-02-28T01:54:23;25.45;;;15.68;;
47519;SDS011;33252;48.122;11.538;2024-02-28T01:56:49;25.70;;;14.52;;
47519;SDS011;33252;48.122;11.538;2024-02-28T01:59:14;28.63;;;15.48;;
47519;SDS011;33252;48.122;11.538;2024-02-28T02:01:41;25.38;;;15.50;;
47519;SDS011;33252;48.122;11.538;2024-02-28T02:04:07;24.73;;;15.25;;
47519;SDS011;33252;48.122;11.538;2024-02-28T02:06:33;25.65;;;15.20;;
47519;SDS011;33252;48.122;11.538;2024-02-28T02:09:03;25.52;;;14.20;;
47519;SDS011;33252;48.122;11.538;2024-02-28T02:11:29;31.02;;;17.35;;
47519;SDS011;33252;48.122;11.538;2024-02-28T02:13:54;27.98;;;15.88;;
47519;SDS011;33252;48.122;11.538;2024-02-28T02:16:20;25.58;;;15.80;;
47519;SDS011;33252;48.122;11.538;2024-02-28T02:18:47;25.92;;;16.15;;
47519;SDS011;33252;48.122;11.538;2024-02-28T02:21:15;28.67;;;17.52;;
47519;SDS011;33252;48.122;11.538;2024-02-28T02:23:43;29.80;;;17.17;;
47519;SDS011;33252;48.122;11.538;2024-02-28T02:26:08;31.20;;;18.23;;
47519;SDS011;33252;48.122;11.538;2024-02-28T02:28:34;29.23;;;16.75;;
47519;SDS011;33252;48.122;11.538;2024-02-28T02:30:59;31.20;;;17.92;;
47519;SDS011;33252;48.122;11.538;2024-02-28T02:33:25;28.20;;;18.48;;
47519;SDS011;33252;48.122;11.538;2024-02-28T02:35:54;32.53;;;17.25;;
47519;SDS011;33252;48.122;11.538;2024-02-28T02:38:19;33.35;;;16.83;;
47519;SDS011;33252;48.122;11.538;2024-02-28T02:40:48;31.70;;;17.50;;
47519;SDS011;33252;48.122;11.538;2024-02-28T02:43:15;34.55;;;17.40;;
47519;SDS011;33252;48.122;11.538;2024-02-28T02:45:40;33.50;;;19.02;;
47519;SDS011;33252;48.122;11.538;2024-02-28T02:48:06;28.90;;;17.13;;
47519;SDS011;33252;48.122;11.538;2024-02-28T02:50:32;36.80;;;18.80;;
47519;SDS011;33252;48.122;11.538;2024-02-28T02:52:57;36.05;;;19.95;;
47519;SDS011;33252;48.122;11.538;2024-02-28T02:55:23;35.45;;;19.25;;
47519;SDS011;33252;48.122;11.538;2024-02-28T02:57:48;35.22;;;21.05;;
47519;SDS011;33252;48.122;11.538;2024-02-28T03:00:14;38.83;;;19.80;;
47519;SDS011;33252;48.122;11.538;2024-02-28T03:02:39;36.38;;;18.10;;
47519;SDS011;33252;48.122;11.538;2024-02-28T03:05:05;38.22;;;19.67;;
47519;SDS011;33252;48.122;11.538;2024-02-28T03:07:31;37.33;;;20.55;;
47519;SDS011;33252;48.122;11.538;2024-02-28T03:09:57;34.03;;;18.48;;
47519;SDS011;33252;48.122;11.538;2024-02-28T03:12:23;39.55;;;20.85;;
47519;SDS011;33252;48.122;11.538;2024-02-28T03:14:48;36.22;;;19.35;;
47519;SDS011;33252;48.122;11.538;2024-02-28T03:17:14;38.58;;;22.17;;
47519;SDS011;33252;48.122;11.538;2024-02-28T03:19:42;38.55;;;20.65;;
47519;SDS011;33252;48.122;11.538;2024-02-28T03:22:08;39.90;;;23.08;;
47519;SDS011;33252;48.122;11.538;2024-02-28T03:24:33;41.78;;;21.77;;
47519;SDS011;33252;48.122;11.538;2024-02-28T03:27:02;39.90;;;21.90;;
47519;SDS011;33252;48.122;11.538;2024-02-28T03:29:28;44.35;;;22.35;;
47519;SDS011;33252;48.122;11.538;2024-02-28T03:31:53;36.20;;;21.15;;
47519;SDS011;33252;48.122;11.538;2024-02-28T03:34:19;42.83;;;22.65;;
47519;SDS011;33252;48.122;11.538;2024-02-28T03:36:45;40.55;;;21.88;;
47519;SDS011;33252;48.122;11.538;2024-02-28T03:39:11;39.95;;;20.67;;
47519;SDS011;33252;48.122;11.538;2024-02-28T03:41:36;41.20;;;21.90;;
47519;SDS011;33252;48.122;11.538;2024-02-28T03:44:03;38.65;;;20.00;;
47519;SDS011;33252;48.122;11.538;2024-02-28T03:46:28;42.97;;;22.33;;
47519;SDS011;33252;48.122;11.538;2024-02-28T03:48:54;39.22;;;20.45;;
47519;SDS011;33252;48.122;11.538;2024-02-28T03:51:20;38.17;;;21.60;;
47519;SDS011;33252;48.122;11.538;2024-02-28T03:53:45;39.53;;;22.25;;
47519;SDS011;33252;48.122;11.538;2024-02-28T03:56:11;35.75;;;20.20;;
47519;SDS011;33252;48.122;11.538;2024-02-28T03:58:36;41.58;;;21.48;;
47519;SDS011;33252;48.122;11.538;2024-02-28T04:01:02;36.95;;;20.40;;
47519;SDS011;33252;48.122;11.538;2024-02-28T04:03:28;38.67;;;21.42;;
47519;SDS011;33252;48.122;11.538;2024-02-28T04:05:54;32.78;;;18.77;;
47519;SDS011;33252;48.122;11.538;2024-02-28T04:08:19;40.22;;;21.42;;
47519;SDS011;33252;48.122;11.538;2024-02-28T04:10:45;38.83;;;21.35;;
47519;SDS011;33252;48.122;11.538;2024-02-28T04:13:10;38.92;;;21.83;;
47519;SDS011;33252;48.122;11.538;2024-02-28T04:15:36;38.42;;;21.33;;
47519;SDS011;33252;48.122;11.538;2024-02-28T04:18:03;37.17;;;20.92;;
47519;SDS011;33252;48.122;11.538;2024-02-28T04:20:29;38.65;;;21.13;;
47519;SDS011;33252;48.122;11.538;2024-02-28T04:22:54;41.38;;;21.27;;
47519;SDS011;33252;48.122;11.538;2024-02-28T04:25:20;43.75;;;21.33;;
47519;SDS011;33252;48.122;11.538;2024-02-28T04:27:45;42.67;;;22.13;;
47519;SDS011;33252;48.122;11.538;2024-02-28T04:30:12;43.20;;;23.48;;
47519;SDS011;33252;48.122;11.538;2024-02-28T04:32:37;49.63;;;23.10;;
47519;SDS011;33252;48.122;11.538;2024-02-28T04:35:09;41.67;;;22.67;;
47519;SDS011;33252;48.122;11.538;2024-02-28T04:37:35;42.50;;;22.33;;
47519;SDS011;33252;48.122;11.538;2024-02-28T04:40:01;46.10;;;23.02;;
47519;SDS011;33252;48.122;11.538;2024-02-28T04:42:28;47.40;;;24.40;;
47519;SDS011;33252;48.122;11.538;2024-02-28T04:44:53;41.15;;;23.40;;
47519;SDS011;33252;48.122;11.538;2024-02-28T04:47:18;40.38;;;22.08;;
47519;SDS011;33252;48.122;11.538;2024-02-28T04:49:44;44.42;;;23.00;;
47519;SDS011;33252;48.122;11.538;2024-02-28T04:52:10;45.80;;;23.23;;
47519;SDS011;33252;48.122;11.538;2024-02-28T04:54:35;42.17;;;21.67;;
47519;SDS011;33252;48.122;11.538;2024-02-28T04:57:00;39.95;;;22.75;;
47519;SDS011;33252;48.122;11.538;2024-02-28T04:59:27;39.55;;;21.20;;
47519;SDS011;33252;48.122;11.538;2024-02-28T05:01:53;44.42;;;20.63;;
47519;SDS011;33252;48.122;11.538;2024-02-28T05:04:18;39.15;;;21.25;;
47519;SDS011;33252;48.122;11.538;2024-02-28T05:06:44;38.88;;;21.55;;
47519;SDS011;33252;48.122;11.538;2024-02-28T05:09:10;39.85;;;20.95;;
47519;SDS011;33252;48.122;11.538;2024-02-28T05:11:35;41.78;;;23.08;;
47519;SDS011;33252;48.122;11.538;2024-02-28T05:14:01;45.92;;;22.63;;
47519;SDS011;33252;48.122;11.538;2024-02-28T05:16:26;36.58;;;20.40;;
47519;SDS011;33252;48.122;11.538;2024-02-28T05:18:52;38.75;;;22.23;;
47519;SDS011;33252;48.122;11.538;2024-02-28T05:21:17;44.92;;;23.92;;
47519;SDS011;33252;48.122;11.538;2024-02-28T05:23:43;43.38;;;22.27;;
47519;SDS011;33252;48.122;11.538;2024-02-28T05:26:08;44.55;;;22.15;;
47519;SDS011;33252;48.122;11.538;2024-02-28T05:28:34;43.97;;;21.92;;
47519;SDS011;33252;48.122;11.538;2024-02-28T05:31:01;49.95;;;22.88;;
47519;SDS011;33252;48.122;11.538;2024-02-28T05:33:28;46.13;;;22.63;;
47519;SDS011;33252;48.122;11.538;2024-02-28T05:35:54;43.90;;;21.85;;
47519;SDS011;33252;48.122;11.538;2024-02-28T05:38:19;44.08;;;22.60;;
47519;SDS011;33252;48.122;11.538;2024-02-28T05:40:45;39.00;;;21.38;;
47519;SDS011;33252;48.122;11.538;2024-02-28T05:43:10;40.58;;;22.90;;
47519;SDS011;33252;48.122;11.538;2024-02-28T05:45:36;44.05;;;22.73;;
47519;SDS011;33252;48.122;11.538;2024-02-28T05:48:01;40.65;;;22.08;;
47519;SDS011;33252;48.122;11.538;2024-02-28T05:50:27;40.75;;;21.98;;
47519;SDS011;33252;48.122;11.538;2024-02-28T05:52:54;45.70;;;23.67;;
47519;SDS011;33252;48.122;11.538;2024-02-28T05:55:20;45.40;;;23.33;;
47519;SDS011;33252;48.122;11.538;2024-02-28T05:57:49;48.88;;;22.85;;
47519;SDS011;33252;48.122;11.538;2024-02-28T06:00:14;42.67;;;22.55;;
47519;SDS011;33252;48.122;11.538;2024-02-28T06:02:40;45.15;;;24.33;;
47519;SDS011;33252;48.122;11.538;2024-02-28T06:05:06;41.28;;;23.17;;
47519;SDS011;33252;48.122;11.538;2024-02-28T06:07:32;47.08;;;23.23;;
47519;SDS011;33252;48.122;11.538;2024-02-28T06:09:58;45.75;;;25.50;;
47519;SDS011;33252;48.122;11.538;2024-02-28T06:12:24;45.60;;;23.75;;
47519;SDS011;33252;48.122;11.538;2024-02-28T06:14:50;45.80;;;23.10;;
47519;SDS011;33252;48.122;11.538;2024-02-28T06:17:15;45.53;;;23.73;;
47519;SDS011;33252;48.122;11.538;2024-02-28T06:19:41;43.63;;;24.55;;
47519;SDS011;33252;48.122;11.538;2024-02-28T06:22:06;48.25;;;25.65;;
47519;SDS011;33252;48.122;11.538;2024-02-28T06:24:35;45.35;;;23.00;;
47519;SDS011;33252;48.122;11.538;2024-02-28T06:27:01;44.05;;;22.00;;
47519;SDS011;33252;48.122;11.538;2024-02-28T06:29:27;50.92;;;24.77;;
47519;SDS011;33252;48.122;11.538;2024-02-28T06:31:52;50.13;;;24.05;;
47519;SDS011;33252;48.122;11.538;2024-02-28T06:34:18;43.17;;;23.13;;
47519;SDS011;33252;48.122;11.538;2024-02-28T06:36:44;38.67;;;21.90;;
47519;SDS011;33252;48.122;11.538;2024-02-28T06:39:09;54.30;;;24.63;;
47519;SDS011;33252;48.122;11.538;2024-02-28T06:41:35;48.00;;;24.38;;
47519;SDS011;33252;48.122;11.538;2024-02-28T06:44:00;50.80;;;24.70;;
47519;SDS011;33252;48.122;11.538;2024-02-28T06:46:26;53.60;;;25.25;;
47519;SDS011;33252;48.122;11.538;2024-02-28T06:48:51;49.47;;;22.95;;
47519;SDS011;33252;48.122;11.538;2024-02-28T06:51:17;52.33;;;25.42;;
47519;SDS011;33252;48.122;11.538;2024-02-28T06:53:43;43.72;;;22.75;;
47519;SDS011;33252;48.122;11.538;2024-02-28T06:56:08;46.35;;;23.58;;
47519;SDS011;33252;48.122;11.538;2024-02-28T06:58:34;47.55;;;22.38;;
47519;SDS011;33252;48.122;11.538;2024-02-28T07:00:59;43.20;;;23.45;;
47519;SDS011;33252;48.122;11.538;2024-02-28T07:03:25;48.80;;;24.77;;
47519;SDS011;33252;48.122;11.538;2024-02-28T07:05:51;48.20;;;23.52;;
47519;SDS011;33252;48.122;11.538;2024-02-28T07:08:18;47.70;;;22.75;;
47519;SDS011;33252;48.122;11.538;2024-02-28T07:10:44;48.15;;;24.45;;
47519;SDS011;33252;48.122;11.538;2024-02-28T07:13:14;52.65;;;23.27;;
47519;SDS011;33252;48.122;11.538;2024-02-28T07:15:40;52.17;;;23.92;;
47519;SDS011;33252;48.122;11.538;2024-02-28T07:18:06;49.78;;;23.70;;
47519;SDS011;33252;48.122;11.538;2024-02-28T07:20:32;49.45;;;23.98;;
47519;SDS011;33252;48.122;11.538;2024-02-28T07:22:58;48.13;;;22.85;;
47519;SDS011;33252;48.122;11.538;2024-02-28T07:25:23;48.50;;;21.85;;
47519;SDS011;33252;48.122;11.538;2024-02-28T07:27:49;49.25;;;25.40;;
47519;SDS011;33252;48.122;11.538;2024-02-28T07:30:15;52.42;;;22.95;;
47519;SDS011;33252;48.122;11.538;2024-02-28T07:32:40;54.15;;;25.75;;
47519;SDS011;33252;48.122;11.538;2024-02-28T07:35:06;45.00;;;23.42;;
47519;SDS011;33252;48.122;11.538;2024-02-28T07:37:32;56.10;;;25.92;;
47519;SDS011;33252;48.122;11.538;2024-02-28T07:39:57;49.42;;;23.63;;
47519;SDS011;33252;48.122;11.538;2024-02-28T07:42:23;50.85;;;23.95;;
47519;SDS011;33252;48.122;11.538;2024-02-28T07:44:48;62.25;;;26.70;;
47519;SDS011;33252;48.122;11.538;2024-02-28T07:47:18;64.72;;;26.98;;
47519;SDS011;33252;48.122;11.538;2024-02-28T07:49:47;51.05;;;24.48;;
47519;SDS011;33252;48.122;11.538;2024-02-28T07:52:13;59.45;;;26.90;;
47519;SDS011;33252;48.122;11.538;2024-02-28T07:54:41;55.58;;;27.63;;
47519;SDS011;33252;48.122;11.538;2024-02-28T07:57:07;57.85;;;28.92;;
47519;SDS011;33252;48.122;11.538;2024-02-28T07:59:38;56.38;;;27.30;;
47519;SDS011;33252;48.122;11.538;2024-02-28T08:02:05;60.13;;;26.20;;
47519;SDS011;33252;48.122;11.538;2024-02-28T08:04:31;59.20;;;27.25;;
47519;SDS011;33252;48.122;11.538;2024-02-28T08:06:56;53.80;;;26.20;;
47519;SDS011;33252;48.122;11.538;2024-02-28T08:09:22;58.95;;;26.55;;
47519;SDS011;33252;48.122;11.538;2024-02-28T08:11:48;48.75;;;25.05;;
47519;SDS011;33252;48.122;11.538;2024-02-28T08:14:13;60.20;;;28.45;;
47519;SDS011;33252;48.122;11.538;2024-02-28T08:16:39;55.10;;;25.92;;
47519;SDS011;33252;48.122;11.538;2024-02-28T08:19:04;60.38;;;27.35;;
47519;SDS011;33252;48.122;11.538;2024-02-28T08:21:30;60.45;;;27.05;;
47519;SDS011;33252;48.122;11.538;2024-02-28T08:23:55;53.75;;;25.02;;
47519;SDS011;33252;48.122;11.538;2024-02-28T08:26:22;56.88;;;25.35;;
47519;SDS011;33252;48.122;11.538;2024-02-28T08:28:48;53.47;;;25.92;;
47519;SDS011;33252;48.122;11.538;2024-02-28T08:31:15;57.40;;;24.88;;
47519;SDS011;33252;48.122;11.538;2024-02-28T08:33:41;61.47;;;26.70;;
47519;SDS011;33252;48.122;11.538;2024-02-28T08:36:06;54.97;;;25.98;;
47519;SDS011;33252;48.122;11.538;2024-02-28T08:38:32;62.38;;;27.73;;
47519;SDS011;33252;48.122;11.538;2024-02-28T08:40:58;61.95;;;26.38;;
47519;SDS011;33252;48.122;11.538;2024-02-28T08:43:23;58.80;;;25.77;;
47519;SDS011;33252;48.122;11.538;2024-02-28T08:45:49;60.42;;;27.23;;
47519;SDS011;33252;48.122;11.538;2024-02-28T08:48:16;66.63;;;27.73;;
47519;SDS011;33252;48.122;11.538;2024-02-28T08:50:42;55.65;;;25.20;;
47519;SDS011;33252;48.122;11.538;2024-02-28T08:53:07;58.92;;;27.95;;
47519;SDS011;33252;48.122;11.538;2024-02-28T08:55:33;56.15;;;26.05;;
47519;SDS011;33252;48.122;11.538;2024-02-28T08:57:58;52.92;;;24.95;;
47519;SDS011;33252;48.122;11.538;2024-02-28T09:00:24;58.17;;;26.83;;
47519;SDS011;33252;48.122;11.538;2024-02-28T09:02:50;58.65;;;25.83;;
47519;SDS011;33252;48.122;11.538;2024-02-28T09:05:16;60.17;;;26.02;;
47519;SDS011;33252;48.122;11.538;2024-02-28T09:07:41;56.72;;;26.23;;
47519;SDS011;33252;48.122;11.538;2024-02-28T09:10:07;53.65;;;27.50;;
47519;SDS011;33252;48.122;11.538;2024-02-28T09:12:33;55.03;;;26.25;;
47519;SDS011;33252;48.122;11.538;2024-02-28T09:14:58;53.25;;;27.30;;
47519;SDS011;33252;48.122;11.538;2024-02-28T09:17:24;62.97;;;29.80;;
47519;SDS011;33252;48.122;11.538;2024-02-28T09:19:50;54.97;;;25.88;;
47519;SDS011;33252;48.122;11.538;2024-02-28T09:22:17;54.63;;;26.85;;
47519;SDS011;33252;48.122;11.538;2024-02-28T09:24:43;55.72;;;27.90;;
47519;SDS011;33252;48.122;11.538;2024-02-28T09:27:08;58.47;;;29.23;;
47519;SDS011;33252;48.122;11.538;2024-02-28T09:29:34;58.58;;;29.23;;
47519;SDS011;33252;48.122;11.538;2024-02-28T09:32:00;55.47;;;27.88;;
47519;SDS011;33252;48.122;11.538;2024-02-28T09:34:25;62.65;;;28.92;;
47519;SDS011;33252;48.122;11.538;2024-02-28T09:36:51;63.60;;;27.33;;
47519;SDS011;33252;48.122;11.538;2024-02-28T09:39:16;62.22;;;29.30;;
47519;SDS011;33252;48.122;11.538;2024-02-28T09:41:42;57.15;;;28.02;;
47519;SDS011;33252;48.122;11.538;2024-02-28T09:44:07;61.85;;;28.88;;
47519;SDS011;33252;48.122;11.538;2024-02-28T09:46:33;53.70;;;27.65;;
47519;SDS011;33252;48.122;11.538;2024-02-28T09:49:04;61.97;;;27.73;;
47519;SDS011;33252;48.122;11.538;2024-02-28T09:51:31;55.03;;;28.70;;
47519;SDS011;33252;48.122;11.538;2024-02-28T09:53:59;53.28;;;27.08;;
47519;SDS011;33252;48.122;11.538;2024-02-28T09:56:27;61.80;;;28.25;;
47519;SDS011;33252;48.122;11.538;2024-02-28T09:58:52;56.95;;;26.00;;
47519;SDS011;33252;48.122;11.538;2024-02-28T10:01:19;61.75;;;28.60;;
47519;SDS011;33252;48.122;11.538;2024-02-28T10:03:51;58.92;;;27.02;;
47519;SDS011;33252;48.122;11.538;2024-02-28T10:06:23;64.30;;;27.52;;
47519;SDS011;33252;48.122;11.538;2024-02-28T10:08:48;54.35;;;28.95;;
47519;SDS011;33252;48.122;11.538;2024-02-28T10:11:32;58.40;;;29.38;;
47519;SDS011;33252;48.122;11.538;2024-02-28T10:13:58;54.92;;;27.23;;
47519;SDS011;33252;48.122;11.538;2024-02-28T10:16:24;54.60;;;27.90;;
47519;SDS011;33252;48.122;11.538;2024-02-28T10:18:50;53.75;;;25.75;;
47519;SDS011;33252;48.122;11.538;2024-02-28T10:21:15;57.65;;;27.25;;
47519;SDS011;33252;48.122;11.538;2024-02-28T10:23:41;56.38;;;27.33;;
47519;SDS011;33252;48.122;11.538;2024-02-28T10:26:10;62.28;;;29.30;;
47519;SDS011;33252;48.122;11.538;2024-02-28T10:28:37;58.17;;;26.02;;
47519;SDS011;33252;48.122;11.538;2024-02-28T10:31:06;57.08;;;27.40;;
47519;SDS011;33252;48.122;11.538;2024-02-28T10:33:32;50.03;;;26.17;;
47519;SDS011;33252;48.122;11.538;2024-02-28T10:36:00;54.35;;;27.98;;
47519;SDS011;33252;48.122;11.538;2024-02-28T10:38:28;53.67;;;26.00;;
47519;SDS011;33252;48.122;11.538;2024-02-28T10:40:55;55.83;;;27.13;;
47519;SDS011;33252;48.122;11.538;2024-02-28T10:43:21;46.80;;;22.83;;
47519;SDS011;33252;48.122;11.538;2024-02-28T10:45:48;49.95;;;24.73;;
47519;SDS011;33252;48.122;11.538;2024-02-28T10:48:14;47.63;;;23.80;;
47519;SDS011;33252;48.122;11.538;2024-02-28T10:50:44;48.70;;;24.48;;
47519;SDS011;33252;48.122;11.538;2024-02-28T10:53:14;45.05;;;22.70;;
47519;SDS011;33252;48.122;11.538;2024-02-28T10:55:41;45.58;;;24.35;;
47519;SDS011;33252;48.122;11.538;2024-02-28T10:58:07;47.88;;;25.15;;
47519;SDS011;33252;48.122;11.538;2024-02-28T11:00:35;48.53;;;24.13;;
47519;SDS011;33252;48.122;11.538;2024-02-28T11:03:03;45.50;;;23.95;;
47519;SDS011;33252;48.122;11.538;2024-02-28T11:05:36;43.72;;;24.50;;
47519;SDS011;33252;48.122;11.538;2024-02-28T11:10:35;47.28;;;22.38;;
47519;SDS011;33252;48.122;11.538;2024-02-28T11:13:00;47.10;;;23.73;;
47519;SDS011;33252;48.122;11.538;2024-02-28T11:15:26;49.33;;;24.67;;
47519;SDS011;33252;48.122;11.538;2024-02-28T11:17:52;49.50;;;24.75;;
47519;SDS011;33252;48.122;11.538;2024-02-28T11:20:18;48.42;;;23.67;;
47519;SDS011;33252;48.122;11.538;2024-02-28T11:22:44;49.80;;;25.23;;
47519;SDS011;33252;48.122;11.538;2024-02-28T11:25:09;50.85;;;24.70;;
47519;SDS011;33252;48.122;11.538;2024-02-28T11:27:45;43.50;;;23.05;;
47519;SDS011;33252;48.122;11.538;2024-02-28T11:30:14;49.63;;;23.83;;
47519;SDS011;33252;48.122;11.538;2024-02-28T11:32:40;46.28;;;24.58;;
47519;SDS011;33252;48.122;11.538;2024-02-28T11:35:06;48.90;;;23.70;;
47519;SDS011;33252;48.122;11.538;2024-02-28T11:37:31;45.83;;;22.80;;
47519;SDS011;33252;48.122;11.538;2024-02-28T11:39:57;51.13;;;26.00;;
47519;SDS011;33252;48.122;11.538;2024-02-28T11:42:23;50.88;;;24.58;;
47519;SDS011;33252;48.122;11.538;2024-02-28T11:44:55;54.03;;;26.10;;
47519;SDS011;33252;48.122;11.538;2024-02-28T11:47:22;45.80;;;25.17;;
47519;SDS011;33252;48.122;11.538;2024-02-28T11:49:48;55.55;;;25.65;;
47519;SDS011;33252;48.122;11.538;2024-02-28T11:52:14;48.67;;;25.15;;
47519;SDS011;33252;48.122;11.538;2024-02-28T11:54:40;44.72;;;23.52;;
47519;SDS011;33252;48.122;11.538;2024-02-28T11:57:07;55.45;;;24.65;;
47519;SDS011;33252;48.122;11.538;2024-02-28T11:59:33;54.55;;;27.70;;
47519;SDS011;33252;48.122;11.538;2024-02-28T12:01:58;48.83;;;24.67;;
47519;SDS011;33252;48.122;11.538;2024-02-28T12:04:24;54.65;;;27.10;;
47519;SDS011;33252;48.122;11.538;2024-02-28T12:06:50;46.90;;;25.20;;
47519;SDS011;33252;48.122;11.538;2024-02-28T12:09:16;50.70;;;26.98;;
47519;SDS011;33252;48.122;11.538;2024-02-28T12:11:43;53.30;;;26.35;;
47519;SDS011;33252;48.122;11.538;2024-02-28T12:14:09;50.83;;;27.92;;
47519;SDS011;33252;48.122;11.538;2024-02-28T12:16:38;50.17;;;25.60;;
47519;SDS011;33252;48.122;11.538;2024-02-28T12:19:10;50.80;;;24.75;;
47519;SDS011;33252;48.122;11.538;2024-02-28T12:21:37;46.88;;;24.75;;
47519;SDS011;33252;48.122;11.538;2024-02-28T12:24:04;52.28;;;25.58;;
47519;SDS011;33252;48.122;11.538;2024-02-28T12:26:34;50.10;;;27.60;;
47519;SDS011;33252;48.122;11.538;2024-02-28T12:29:00;48.67;;;26.15;;
47519;SDS011;33252;48.122;11.538;2024-02-28T12:31:26;55.35;;;26.70;;
47519;SDS011;33252;48.122;11.538;2024-02-28T12:33:52;48.92;;;26.80;;
47519;SDS011;33252;48.122;11.538;2024-02-28T12:36:18;53.10;;;25.63;;
47519;SDS011;33252;48.122;11.538;2024-02-28T12:38:44;55.13;;;27.90;;
47519;SDS011;33252;48.122;11.538;2024-02-28T12:41:10;46.00;;;23.17;;
47519;SDS011;33252;48.122;11.538;2024-02-28T12:43:35;53.65;;;26.25;;
47519;SDS011;33252;48.122;11.538;2024-02-28T12:46:01;49.17;;;24.45;;
47519;SDS011;33252;48.122;11.538;2024-02-28T12:48:27;52.83;;;24.70;;
47519;SDS011;33252;48.122;11.538;2024-02-28T12:50:52;47.55;;;23.52;;
47519;SDS011;33252;48.122;11.538;2024-02-28T12:53:18;45.60;;;25.52;;
47519;SDS011;33252;48.122;11.538;2024-02-28T12:55:44;54.30;;;24.55;;
47519;SDS011;33252;48.122;11.538;2024-02-28T12:58:10;47.72;;;23.25;;
47519;SDS011;33252;48.122;11.538;2024-02-28T13:00:35;50.78;;;26.77;;
47519;SDS011;33252;48.122;11.538;2024-02-28T13:03:01;45.70;;;24.00;;
47519;SDS011;33252;48.122;11.538;2024-02-28T13:05:28;46.17;;;24.17;;
47519;SDS011;33252;48.122;11.538;2024-02-28T13:07:54;43.85;;;25.38;;
47519;SDS011;33252;48.122;11.538;2024-02-28T13:10:19;48.55;;;24.25;;
47519;SDS011;33252;48.122;11.538;2024-02-28T13:12:46;46.35;;;24.98;;
47519;SDS011;33252;48.122;11.538;2024-02-28T13:15:12;45.35;;;24.35;;
47519;SDS011;33252;48.122;11.538;2024-02-28T13:17:38;47.45;;;24.88;;
47519;SDS011;33252;48.122;11.538;2024-02-28T13:20:03;46.20;;;23.35;;
47519;SDS011;33252;48.122;11.538;2024-02-28T13:22:29;44.65;;;20.55;;
47519;SDS011;33252;48.122;11.538;2024-02-28T13:24:55;38.47;;;21.20;;
47519;SDS011;33252;48.122;11.538;2024-02-28T13:27:20;42.92;;;22.98;;
47519;SDS011;33252;48.122;11.538;2024-02-28T13:29:46;42.63;;;23.33;;
47519;SDS011;33252;48.122;11.538;2024-02-28T13:32:11;45.65;;;23.15;;
47519;SDS011;33252;48.122;11.538;2024-02-28T13:34:39;42.70;;;22.20;;
47519;SDS011;33252;48.122;11.538;2024-02-28T13:37:04;48.60;;;24.60;;
47519;SDS011;33252;48.122;11.538;2024-02-28T13:39:30;43.80;;;22.58;;
47519;SDS011;33252;48.122;11.538;2024-02-28T13:41:56;43.85;;;23.13;;
47519;SDS011;33252;48.122;11.538;2024-02-28T13:44:22;48.25;;;24.10;;
47519;SDS011;33252;48.122;11.538;2024-02-28T13:46:48;47.20;;;26.02;;
47519;SDS011;33252;48.122;11.538;2024-02-28T13:49:14;48.45;;;24.13;;
47519;SDS011;33252;48.122;11.538;2024-02-28T13:51:42;44.10;;;23.92;;
47519;SDS011;33252;48.122;11.538;2024-02-28T13:54:08;46.17;;;24.75;;
47519;SDS011;33252;48.122;11.538;2024-02-28T13:56:33;43.75;;;22.92;;
47519;SDS011;33252;48.122;11.538;2024-02-28T13:58:59;44.80;;;26.05;;
47519;SDS011;33252;48.122;11.538;2024-02-28T14:01:24;46.60;;;24.77;;
47519;SDS011;33252;48.122;11.538;2024-02-28T14:03:50;43.55;;;24.63;;
47519;SDS011;33252;48.122;11.538;2024-02-28T14:06:16;46.38;;;24.52;;